sensor_id;sensor_type;location;lat;lon;timestamp;temperature;humidity
12166;DHT22;6146;48.128;11.476;2023-03-03T00:00:44;0.40;99.90
12166;DHT22;6146;48.128;11.476;2023-03-03T00:03:13;0.40;99.90
12166;DHT22;6146;48.128;11.476;2023-03-03T00:05:39;0.40;99.90
12166;DHT22;6146;48.128;11.476;2023-03-03T00:08:05;0.40;99.90
12166;DHT22;6146;48.128;11.476;2023-03-03T00:10:30;0.40;99.90
12166;DHT22;6146;48.128;11.476;2023-03-03T00:12:56;0.40;99.90
12166;DHT22;6146;48.128;11.476;2023-03-03T00:15:23;0.40;99.90
12166;DHT22;6146;48.128;11.476;2023-03-03T00:17:50;0.40;99.90
12166;DHT22;6146;48.128;11.476;2023-03-03T00:20:31;0.40;99.90
12166;DHT22;6146;48.128;11.476;2023-03-03T00:25:57;0.30;99.90
12166;DHT22;6146;48.128;11.476;2023-03-03T00:28:46;0.30;99.90
12166;DHT22;6146;48.128;11.476;2023-03-03T00:31:17;0.30;99.90
12166;DHT22;6146;48.128;11.476;2023-03-03T00:33:49;0.30;99.90
12166;DHT22;6146;48.128;11.476;2023-03-03T00:36:37;0.30;99.90
12166;DHT22;6146;48.128;11.476;2023-03-03T00:39:28;0.30;99.90
12166;DHT22;6146;48.128;11.476;2023-03-03T00:41:56;0.30;99.90
12166;DHT22;6146;48.128;11.476;2023-03-03T00:44:38;0.30;99.90
12166;DHT22;6146;48.128;11.476;2023-03-03T00:49:47;0.30;99.90
12166;DHT22;6146;48.128;11.476;2023-03-03T00:52:16;0.30;99.90
12166;DHT22;6146;48.128;11.476;2023-03-03T00:54:42;0.30;99.90
12166;DHT22;6146;48.128;11.476;2023-03-03T00:57:07;0.30;99.90
12166;DHT22;6146;48.128;11.476;2023-03-03T00:59:33;0.30;99.90
12166;DHT22;6146;48.128;11.476;2023-03-03T01:01:59;0.20;99.90
12166;DHT22;6146;48.128;11.476;2023-03-03T01:04:24;0.30;99.90
12166;DHT22;6146;48.128;11.476;2023-03-03T01:06:50;0.30;99.90
12166;DHT22;6146;48.128;11.476;2023-03-03T01:09:16;0.30;99.90
12166;DHT22;6146;48.128;11.476;2023-03-03T01:11:41;0.30;99.90
12166;DHT22;6146;48.128;11.476;2023-03-03T01:14:07;0.30;99.90
12166;DHT22;6146;48.128;11.476;2023-03-03T01:16:33;0.30;99.90
12166;DHT22;6146;48.128;11.476;2023-03-03T01:18:59;0.30;99.90
12166;DHT22;6146;48.128;11.476;2023-03-03T01:21:24;0.30;99.90
12166;DHT22;6146;48.128;11.476;2023-03-03T01:23:50;0.30;99.90
12166;DHT22;6146;48.128;11.476;2023-03-03T01:26:15;0.30;99.90
12166;DHT22;6146;48.128;11.476;2023-03-03T01:28:41;0.30;99.90
12166;DHT22;6146;48.128;11.476;2023-03-03T01:31:07;0.40;99.90
12166;DHT22;6146;48.128;11.476;2023-03-03T01:33:34;0.40;99.90
12166;DHT22;6146;48.128;11.476;2023-03-03T01:36:00;0.40;99.90
12166;DHT22;6146;48.128;11.476;2023-03-03T01:38:26;0.40;99.90
12166;DHT22;6146;48.128;11.476;2023-03-03T01:40:56;0.40;99.90
12166;DHT22;6146;48.128;11.476;2023-03-03T01:43:22;0.40;99.90
12166;DHT22;6146;48.128;11.476;2023-03-03T01:48:18;0.40;99.90
12166;DHT22;6146;48.128;11.476;2023-03-03T01:53:18;0.40;99.90
12166;DHT22;6146;48.128;11.476;2023-03-03T01:55:45;0.40;99.90
12166;DHT22;6146;48.128;11.476;2023-03-03T01:58:22;0.40;99.90
12166;DHT22;6146;48.128;11.476;2023-03-03T02:00:54;0.40;99.90
12166;DHT22;6146;48.128;11.476;2023-03-03T02:03:21;0.40;99.90
12166;DHT22;6146;48.128;11.476;2023-03-03T02:05:49;0.40;99.90
12166;DHT22;6146;48.128;11.476;2023-03-03T02:08:19;0.40;99.90
12166;DHT22;6146;48.128;11.476;2023-03-03T02:10:46;0.40;99.90
12166;DHT22;6146;48.128;11.476;2023-03-03T02:13:12;0.40;99.90
12166;DHT22;6146;48.128;11.476;2023-03-03T02:15:38;0.40;99.90
12166;DHT22;6146;48.128;11.476;2023-03-03T02:18:08;0.50;99.90
12166;DHT22;6146;48.128;11.476;2023-03-03T02:23:26;0.50;99.90
12166;DHT22;6146;48.128;11.476;2023-03-03T02:28:26;0.50;99.90
12166;DHT22;6146;48.128;11.476;2023-03-03T02:30:56;2.00;99.90
12166;DHT22;6146;48.128;11.476;2023-03-03T02:33:22;0.50;99.90
12166;DHT22;6146;48.128;11.476;2023-03-03T02:35:48;0.50;99.90
12166;DHT22;6146;48.128;11.476;2023-03-03T02:40:48;0.50;99.90
12166;DHT22;6146;48.128;11.476;2023-03-03T02:43:18;0.50;99.90
12166;DHT22;6146;48.128;11.476;2023-03-03T02:45:44;0.40;99.90
12166;DHT22;6146;48.128;11.476;2023-03-03T02:48:10;0.40;99.90
12166;DHT22;6146;48.128;11.476;2023-03-03T02:50:36;0.40;99.90
12166;DHT22;6146;48.128;11.476;2023-03-03T02:53:02;0.40;99.90
12166;DHT22;6146;48.128;11.476;2023-03-03T02:55:27;0.40;99.90
12166;DHT22;6146;48.128;11.476;2023-03-03T02:57:53;0.40;99.90
12166;DHT22;6146;48.128;11.476;2023-03-03T03:00:18;0.50;99.90
12166;DHT22;6146;48.128;11.476;2023-03-03T03:02:45;0.50;99.90
12166;DHT22;6146;48.128;11.476;2023-03-03T03:05:11;0.60;99.90
12166;DHT22;6146;48.128;11.476;2023-03-03T03:07:37;0.60;99.90
12166;DHT22;6146;48.128;11.476;2023-03-03T03:10:02;0.70;99.90
12166;DHT22;6146;48.128;11.476;2023-03-03T03:12:28;0.80;99.90
12166;DHT22;6146;48.128;11.476;2023-03-03T03:14:54;0.90;99.90
12166;DHT22;6146;48.128;11.476;2023-03-03T03:17:19;1.00;99.90
12166;DHT22;6146;48.128;11.476;2023-03-03T03:19:45;1.10;99.90
12166;DHT22;6146;48.128;11.476;2023-03-03T03:22:10;1.20;99.90
12166;DHT22;6146;48.128;11.476;2023-03-03T03:24:36;1.20;99.90
12166;DHT22;6146;48.128;11.476;2023-03-03T03:27:01;1.30;99.90
12166;DHT22;6146;48.128;11.476;2023-03-03T03:29:27;1.30;99.90
12166;DHT22;6146;48.128;11.476;2023-03-03T03:31:53;1.30;99.90
12166;DHT22;6146;48.128;11.476;2023-03-03T03:34:18;1.40;99.90
12166;DHT22;6146;48.128;11.476;2023-03-03T03:36:44;1.40;99.90
12166;DHT22;6146;48.128;11.476;2023-03-03T03:39:11;1.50;99.90
12166;DHT22;6146;48.128;11.476;2023-03-03T03:41:37;1.60;99.90
12166;DHT22;6146;48.128;11.476;2023-03-03T03:44:02;1.70;99.90
12166;DHT22;6146;48.128;11.476;2023-03-03T03:46:28;1.70;99.90
12166;DHT22;6146;48.128;11.476;2023-03-03T03:48:54;1.80;99.90
12166;DHT22;6146;48.128;11.476;2023-03-03T03:51:19;1.80;99.90
12166;DHT22;6146;48.128;11.476;2023-03-03T03:53:45;1.80;99.90
12166;DHT22;6146;48.128;11.476;2023-03-03T03:56:10;1.80;99.90
12166;DHT22;6146;48.128;11.476;2023-03-03T03:58:36;1.90;99.90
12166;DHT22;6146;48.128;11.476;2023-03-03T04:01:04;1.90;99.90
12166;DHT22;6146;48.128;11.476;2023-03-03T04:03:31;1.90;99.90
12166;DHT22;6146;48.128;11.476;2023-03-03T04:05:57;1.90;99.90
12166;DHT22;6146;48.128;11.476;2023-03-03T04:08:22;2.00;99.90
12166;DHT22;6146;48.128;11.476;2023-03-03T04:10:48;2.00;99.90
12166;DHT22;6146;48.128;11.476;2023-03-03T04:13:14;2.00;99.90
12166;DHT22;6146;48.128;11.476;2023-03-03T04:15:40;2.00;99.90
12166;DHT22;6146;48.128;11.476;2023-03-03T04:18:06;2.00;99.90
12166;DHT22;6146;48.128;11.476;2023-03-03T04:20:31;2.00;99.90
12166;DHT22;6146;48.128;11.476;2023-03-03T04:22:57;2.00;99.90
12166;DHT22;6146;48.128;11.476;2023-03-03T04:25:23;2.00;99.90
12166;DHT22;6146;48.128;11.476;2023-03-03T04:27:48;2.00;99.90
12166;DHT22;6146;48.128;11.476;2023-03-03T04:30:15;2.00;99.90
12166;DHT22;6146;48.128;11.476;2023-03-03T04:32:41;2.10;99.90
12166;DHT22;6146;48.128;11.476;2023-03-03T04:35:08;2.10;99.90
12166;DHT22;6146;48.128;11.476;2023-03-03T04:37:34;2.20;99.90
12166;DHT22;6146;48.128;11.476;2023-03-03T04:40:00;2.20;99.90
12166;DHT22;6146;48.128;11.476;2023-03-03T04:42:26;2.20;99.90
12166;DHT22;6146;48.128;11.476;2023-03-03T04:44:52;2.20;99.90
12166;DHT22;6146;48.128;11.476;2023-03-03T04:47:18;2.20;99.90
12166;DHT22;6146;48.128;11.476;2023-03-03T04:49:43;2.20;99.90
12166;DHT22;6146;48.128;11.476;2023-03-03T04:52:09;2.20;99.90
12166;DHT22;6146;48.128;11.476;2023-03-03T04:54:34;2.30;99.90
12166;DHT22;6146;48.128;11.476;2023-03-03T04:57:00;2.30;99.90
12166;DHT22;6146;48.128;11.476;2023-03-03T04:59:26;2.30;99.90
12166;DHT22;6146;48.128;11.476;2023-03-03T05:01:51;2.30;99.90
12166;DHT22;6146;48.128;11.476;2023-03-03T05:04:17;2.40;99.90
12166;DHT22;6146;48.128;11.476;2023-03-03T05:06:42;2.40;99.90
12166;DHT22;6146;48.128;11.476;2023-03-03T05:09:08;2.40;99.90
12166;DHT22;6146;48.128;11.476;2023-03-03T05:11:34;2.40;99.90
12166;DHT22;6146;48.128;11.476;2023-03-03T05:14:00;2.30;99.90
12166;DHT22;6146;48.128;11.476;2023-03-03T05:16:27;2.40;99.90
12166;DHT22;6146;48.128;11.476;2023-03-03T05:18:53;2.40;99.90
12166;DHT22;6146;48.128;11.476;2023-03-03T05:21:18;2.40;99.90
12166;DHT22;6146;48.128;11.476;2023-03-03T05:23:44;2.40;99.90
12166;DHT22;6146;48.128;11.476;2023-03-03T05:26:09;2.40;99.90
12166;DHT22;6146;48.128;11.476;2023-03-03T05:28:35;2.50;99.90
12166;DHT22;6146;48.128;11.476;2023-03-03T05:31:00;2.50;99.90
12166;DHT22;6146;48.128;11.476;2023-03-03T05:33:26;2.50;99.90
12166;DHT22;6146;48.128;11.476;2023-03-03T05:35:56;2.50;99.90
12166;DHT22;6146;48.128;11.476;2023-03-03T05:38:22;2.50;99.90
12166;DHT22;6146;48.128;11.476;2023-03-03T05:40:48;2.40;99.90
12166;DHT22;6146;48.128;11.476;2023-03-03T05:43:14;2.40;99.90
12166;DHT22;6146;48.128;11.476;2023-03-03T05:45:39;2.40;99.90
12166;DHT22;6146;48.128;11.476;2023-03-03T05:48:05;2.40;99.90
12166;DHT22;6146;48.128;11.476;2023-03-03T05:50:31;2.50;99.90
12166;DHT22;6146;48.128;11.476;2023-03-03T05:52:57;2.50;99.90
12166;DHT22;6146;48.128;11.476;2023-03-03T05:55:22;2.50;99.90
12166;DHT22;6146;48.128;11.476;2023-03-03T05:57:48;2.60;99.90
12166;DHT22;6146;48.128;11.476;2023-03-03T06:00:14;2.60;99.90
12166;DHT22;6146;48.128;11.476;2023-03-03T06:02:41;2.60;99.90
12166;DHT22;6146;48.128;11.476;2023-03-03T06:05:07;2.60;99.90
12166;DHT22;6146;48.128;11.476;2023-03-03T06:07:33;2.60;99.90
12166;DHT22;6146;48.128;11.476;2023-03-03T06:09:59;2.60;99.90
12166;DHT22;6146;48.128;11.476;2023-03-03T06:12:25;2.70;99.90
12166;DHT22;6146;48.128;11.476;2023-03-03T06:14:50;2.60;99.90
12166;DHT22;6146;48.128;11.476;2023-03-03T06:17:16;2.60;99.90
12166;DHT22;6146;48.128;11.476;2023-03-03T06:19:41;2.70;99.90
12166;DHT22;6146;48.128;11.476;2023-03-03T06:22:07;2.70;99.90
12166;DHT22;6146;48.128;11.476;2023-03-03T06:24:33;2.70;99.90
12166;DHT22;6146;48.128;11.476;2023-03-03T06:27:00;2.70;99.90
12166;DHT22;6146;48.128;11.476;2023-03-03T06:29:26;2.70;99.90
12166;DHT22;6146;48.128;11.476;2023-03-03T06:31:52;2.70;99.90
12166;DHT22;6146;48.128;11.476;2023-03-03T06:34:18;2.80;99.90
12166;DHT22;6146;48.128;11.476;2023-03-03T06:36:44;2.80;99.90
12166;DHT22;6146;48.128;11.476;2023-03-03T06:39:09;2.70;99.90
12166;DHT22;6146;48.128;11.476;2023-03-03T06:41:35;2.80;99.90
12166;DHT22;6146;48.128;11.476;2023-03-03T06:44:01;2.80;99.90
12166;DHT22;6146;48.128;11.476;2023-03-03T06:46:27;2.80;99.90
12166;DHT22;6146;48.128;11.476;2023-03-03T06:48:53;2.80;99.90
12166;DHT22;6146;48.128;11.476;2023-03-03T06:51:30;2.90;99.90
12166;DHT22;6146;48.128;11.476;2023-03-03T06:54:01;2.80;99.90
12166;DHT22;6146;48.128;11.476;2023-03-03T06:56:27;2.90;99.90
12166;DHT22;6146;48.128;11.476;2023-03-03T06:58:55;2.90;99.90
12166;DHT22;6146;48.128;11.476;2023-03-03T07:01:22;3.00;99.90
12166;DHT22;6146;48.128;11.476;2023-03-03T07:03:48;2.90;99.90
12166;DHT22;6146;48.128;11.476;2023-03-03T07:06:22;2.90;99.90
12166;DHT22;6146;48.128;11.476;2023-03-03T07:08:49;3.00;99.90
12166;DHT22;6146;48.128;11.476;2023-03-03T07:11:17;3.00;99.90
12166;DHT22;6146;48.128;11.476;2023-03-03T07:13:46;3.00;99.90
12166;DHT22;6146;48.128;11.476;2023-03-03T07:16:13;3.10;99.90
12166;DHT22;6146;48.128;11.476;2023-03-03T07:21:22;3.20;99.90
12166;DHT22;6146;48.128;11.476;2023-03-03T07:23:52;3.20;99.90
12166;DHT22;6146;48.128;11.476;2023-03-03T07:26:20;3.30;99.90
12166;DHT22;6146;48.128;11.476;2023-03-03T07:31:40;3.30;99.90
12166;DHT22;6146;48.128;11.476;2023-03-03T07:34:37;3.40;99.90
12166;DHT22;6146;48.128;11.476;2023-03-03T07:39:53;3.50;99.90
12166;DHT22;6146;48.128;11.476;2023-03-03T07:42:22;3.50;99.90
12166;DHT22;6146;48.128;11.476;2023-03-03T07:44:53;3.50;99.90
12166;DHT22;6146;48.128;11.476;2023-03-03T07:47:27;3.50;99.90
12166;DHT22;6146;48.128;11.476;2023-03-03T07:49:56;3.60;99.90
12166;DHT22;6146;48.128;11.476;2023-03-03T07:52:55;3.60;99.90
12166;DHT22;6146;48.128;11.476;2023-03-03T07:55:40;3.70;99.90
12166;DHT22;6146;48.128;11.476;2023-03-03T08:03:24;3.70;99.90
12166;DHT22;6146;48.128;11.476;2023-03-03T08:05:51;3.70;99.90
12166;DHT22;6146;48.128;11.476;2023-03-03T08:08:32;3.70;99.90
12166;DHT22;6146;48.128;11.476;2023-03-03T08:11:02;3.80;99.90
12166;DHT22;6146;48.128;11.476;2023-03-03T08:13:28;4.00;99.90
12166;DHT22;6146;48.128;11.476;2023-03-03T08:21:06;4.30;99.90
12166;DHT22;6146;48.128;11.476;2023-03-03T08:23:33;4.50;99.90
12166;DHT22;6146;48.128;11.476;2023-03-03T08:25:58;4.50;99.90
12166;DHT22;6146;48.128;11.476;2023-03-03T08:28:24;4.60;99.90
12166;DHT22;6146;48.128;11.476;2023-03-03T08:30:50;4.60;99.90
12166;DHT22;6146;48.128;11.476;2023-03-03T08:33:16;4.70;99.90
12166;DHT22;6146;48.128;11.476;2023-03-03T08:35:43;4.90;99.90
12166;DHT22;6146;48.128;11.476;2023-03-03T08:38:09;5.00;99.90
12166;DHT22;6146;48.128;11.476;2023-03-03T08:40:36;5.20;99.90
12166;DHT22;6146;48.128;11.476;2023-03-03T08:43:01;5.50;99.90
12166;DHT22;6146;48.128;11.476;2023-03-03T08:45:27;5.70;99.90
12166;DHT22;6146;48.128;11.476;2023-03-03T08:47:53;5.60;99.90
12166;DHT22;6146;48.128;11.476;2023-03-03T08:50:19;5.60;99.90
12166;DHT22;6146;48.128;11.476;2023-03-03T08:52:45;5.90;99.90
12166;DHT22;6146;48.128;11.476;2023-03-03T08:55:11;4.70;99.90
12166;DHT22;6146;48.128;11.476;2023-03-03T08:57:37;6.10;99.90
12166;DHT22;6146;48.128;11.476;2023-03-03T09:00:08;6.40;99.90
12166;DHT22;6146;48.128;11.476;2023-03-03T09:02:34;6.50;99.90
12166;DHT22;6146;48.128;11.476;2023-03-03T09:04:59;6.60;99.90
12166;DHT22;6146;48.128;11.476;2023-03-03T09:07:25;6.70;99.90
12166;DHT22;6146;48.128;11.476;2023-03-03T09:09:51;6.70;99.90
12166;DHT22;6146;48.128;11.476;2023-03-03T09:12:19;6.70;99.90
12166;DHT22;6146;48.128;11.476;2023-03-03T09:14:46;6.80;99.90
12166;DHT22;6146;48.128;11.476;2023-03-03T09:17:32;6.80;99.90
12166;DHT22;6146;48.128;11.476;2023-03-03T09:20:25;6.80;99.90
12166;DHT22;6146;48.128;11.476;2023-03-03T09:22:53;6.90;99.90
12166;DHT22;6146;48.128;11.476;2023-03-03T09:25:33;7.10;99.90
12166;DHT22;6146;48.128;11.476;2023-03-03T09:28:00;7.00;99.90
12166;DHT22;6146;48.128;11.476;2023-03-03T09:30:36;7.10;99.90
12166;DHT22;6146;48.128;11.476;2023-03-03T09:33:30;7.30;99.90
12166;DHT22;6146;48.128;11.476;2023-03-03T09:36:10;7.50;99.90
12166;DHT22;6146;48.128;11.476;2023-03-03T09:38:40;7.70;99.90
12166;DHT22;6146;48.128;11.476;2023-03-03T09:50:35;7.90;99.90
12166;DHT22;6146;48.128;11.476;2023-03-03T09:58:45;8.10;99.90
12166;DHT22;6146;48.128;11.476;2023-03-03T10:06:55;8.50;99.90
12166;DHT22;6146;48.128;11.476;2023-03-03T10:20:21;8.30;99.90
12166;DHT22;6146;48.128;11.476;2023-03-03T10:22:55;8.10;99.90
12166;DHT22;6146;48.128;11.476;2023-03-03T10:25:39;8.20;99.90
12166;DHT22;6146;48.128;11.476;2023-03-03T10:31:01;8.20;99.90
12166;DHT22;6146;48.128;11.476;2023-03-03T10:44:21;7.80;99.90
12166;DHT22;6146;48.128;11.476;2023-03-03T11:01:24;8.80;99.90
12166;DHT22;6146;48.128;11.476;2023-03-03T11:04:24;8.70;99.90
12166;DHT22;6146;48.128;11.476;2023-03-03T11:15:36;9.20;99.90
12166;DHT22;6146;48.128;11.476;2023-03-03T11:18:17;9.30;99.90
12166;DHT22;6146;48.128;11.476;2023-03-03T11:31:34;9.40;99.90
12166;DHT22;6146;48.128;11.476;2023-03-03T11:37:20;9.00;99.90
12166;DHT22;6146;48.128;11.476;2023-03-03T11:39:49;8.80;99.90
12166;DHT22;6146;48.128;11.476;2023-03-03T11:42:40;8.70;99.90
12166;DHT22;6146;48.128;11.476;2023-03-03T11:45:22;8.90;99.90
12166;DHT22;6146;48.128;11.476;2023-03-03T11:48:05;8.90;99.90
12166;DHT22;6146;48.128;11.476;2023-03-03T11:50:44;9.00;99.90
12166;DHT22;6146;48.128;11.476;2023-03-03T11:53:49;9.00;99.90
12166;DHT22;6146;48.128;11.476;2023-03-03T11:56:26;9.20;99.90
12166;DHT22;6146;48.128;11.476;2023-03-03T11:58:57;9.50;99.90
12166;DHT22;6146;48.128;11.476;2023-03-03T12:01:48;10.00;99.90
12166;DHT22;6146;48.128;11.476;2023-03-03T12:04:28;10.20;99.90
12166;DHT22;6146;48.128;11.476;2023-03-03T12:07:30;10.10;99.90
12166;DHT22;6146;48.128;11.476;2023-03-03T12:12:42;10.20;99.90
12166;DHT22;6146;48.128;11.476;2023-03-03T12:18:34;10.20;99.90
12166;DHT22;6146;48.128;11.476;2023-03-03T12:29:18;10.30;99.90
12166;DHT22;6146;48.128;11.476;2023-03-03T12:34:40;10.70;99.90
12166;DHT22;6146;48.128;11.476;2023-03-03T12:47:27;10.60;99.90
12166;DHT22;6146;48.128;11.476;2023-03-03T12:55:41;10.30;99.90
12166;DHT22;6146;48.128;11.476;2023-03-03T13:01:26;10.20;99.90
12166;DHT22;6146;48.128;11.476;2023-03-03T13:15:15;10.40;99.90
12166;DHT22;6146;48.128;11.476;2023-03-03T13:17:37;10.70;99.90
12166;DHT22;6146;48.128;11.476;2023-03-03T13:23:47;10.40;99.90
12166;DHT22;6146;48.128;11.476;2023-03-03T13:28:33;10.60;99.90
12166;DHT22;6146;48.128;11.476;2023-03-03T13:31:11;10.40;99.90
12166;DHT22;6146;48.128;11.476;2023-03-03T13:33:41;10.30;99.90
12166;DHT22;6146;48.128;11.476;2023-03-03T13:36:14;10.20;99.90
12166;DHT22;6146;48.128;11.476;2023-03-03T13:38:49;10.00;99.90
12166;DHT22;6146;48.128;11.476;2023-03-03T13:46:45;10.10;99.90
12166;DHT22;6146;48.128;11.476;2023-03-03T13:52:26;10.20;99.90
12166;DHT22;6146;48.128;11.476;2023-03-03T13:54:52;10.00;99.90
12166;DHT22;6146;48.128;11.476;2023-03-03T14:00:11;10.00;99.90
12166;DHT22;6146;48.128;11.476;2023-03-03T14:03:02;9.90;99.90
12166;DHT22;6146;48.128;11.476;2023-03-03T14:05:44;9.80;99.90
12166;DHT22;6146;48.128;11.476;2023-03-03T14:08:15;10.00;99.90
12166;DHT22;6146;48.128;11.476;2023-03-03T14:11:09;10.20;99.90
12166;DHT22;6146;48.128;11.476;2023-03-03T14:13:59;10.30;99.90
12166;DHT22;6146;48.128;11.476;2023-03-03T14:21:56;10.50;99.90
12166;DHT22;6146;48.128;11.476;2023-03-03T14:24:28;10.60;99.90
12166;DHT22;6146;48.128;11.476;2023-03-03T14:26:56;10.60;99.90
12166;DHT22;6146;48.128;11.476;2023-03-03T14:29:29;10.30;99.90
12166;DHT22;6146;48.128;11.476;2023-03-03T14:31:57;10.20;99.90
12166;DHT22;6146;48.128;11.476;2023-03-03T14:36:50;10.50;99.90
12166;DHT22;6146;48.128;11.476;2023-03-03T14:39:38;10.50;99.90
12166;DHT22;6146;48.128;11.476;2023-03-03T14:42:29;10.40;99.90
12166;DHT22;6146;48.128;11.476;2023-03-03T14:44:55;10.40;99.90
12166;DHT22;6146;48.128;11.476;2023-03-03T14:47:25;10.30;99.90
12166;DHT22;6146;48.128;11.476;2023-03-03T14:49:52;10.00;99.90
12166;DHT22;6146;48.128;11.476;2023-03-03T14:52:24;10.00;99.90
12166;DHT22;6146;48.128;11.476;2023-03-03T14:54:53;9.90;99.90
12166;DHT22;6146;48.128;11.476;2023-03-03T14:57:38;10.00;99.90
12166;DHT22;6146;48.128;11.476;2023-03-03T15:07:53;10.20;99.90
12166;DHT22;6146;48.128;11.476;2023-03-03T15:12:53;10.00;99.90
12166;DHT22;6146;48.128;11.476;2023-03-03T15:15:21;10.00;99.90
12166;DHT22;6146;48.128;11.476;2023-03-03T15:20:36;9.90;99.90
12166;DHT22;6146;48.128;11.476;2023-03-03T15:25:46;9.60;99.90
12166;DHT22;6146;48.128;11.476;2023-03-03T15:28:21;9.60;99.90
12166;DHT22;6146;48.128;11.476;2023-03-03T15:31:12;9.60;99.90
12166;DHT22;6146;48.128;11.476;2023-03-03T15:33:59;9.60;99.90
12166;DHT22;6146;48.128;11.476;2023-03-03T15:36:44;9.60;99.90
12166;DHT22;6146;48.128;11.476;2023-03-03T15:44:54;9.50;99.90
12166;DHT22;6146;48.128;11.476;2023-03-03T15:53:20;9.40;99.90
12166;DHT22;6146;48.128;11.476;2023-03-03T16:04:14;9.40;99.90
12166;DHT22;6146;48.128;11.476;2023-03-03T16:21:21;8.70;99.90
12166;DHT22;6146;48.128;11.476;2023-03-03T16:23:57;8.60;99.90
12166;DHT22;6146;48.128;11.476;2023-03-03T16:29:30;8.40;99.90
12166;DHT22;6146;48.128;11.476;2023-03-03T16:32:29;8.30;99.90
12166;DHT22;6146;48.128;11.476;2023-03-03T16:35:20;8.30;99.90
12166;DHT22;6146;48.128;11.476;2023-03-03T16:37:57;8.10;99.90
12166;DHT22;6146;48.128;11.476;2023-03-03T16:40:32;8.00;99.90
12166;DHT22;6146;48.128;11.476;2023-03-03T16:45:39;7.70;99.90
12166;DHT22;6146;48.128;11.476;2023-03-03T16:48:50;7.60;99.90
12166;DHT22;6146;48.128;11.476;2023-03-03T16:51:27;7.50;99.90
12166;DHT22;6146;48.128;11.476;2023-03-03T16:54:13;7.30;99.90
12166;DHT22;6146;48.128;11.476;2023-03-03T17:02:39;7.10;99.90
12166;DHT22;6146;48.128;11.476;2023-03-03T17:11:08;6.70;99.90
12166;DHT22;6146;48.128;11.476;2023-03-03T17:22:02;6.40;99.90
12166;DHT22;6146;48.128;11.476;2023-03-03T17:27:05;6.20;99.90
12166;DHT22;6146;48.128;11.476;2023-03-03T17:45:50;5.70;99.90
12166;DHT22;6146;48.128;11.476;2023-03-03T17:51:13;5.60;99.90
12166;DHT22;6146;48.128;11.476;2023-03-03T17:53:47;5.50;99.90
12166;DHT22;6146;48.128;11.476;2023-03-03T18:02:16;5.40;99.90
12166;DHT22;6146;48.128;11.476;2023-03-03T18:05:05;5.20;99.90
12166;DHT22;6146;48.128;11.476;2023-03-03T18:07:49;5.20;99.90
12166;DHT22;6146;48.128;11.476;2023-03-03T18:19:21;5.00;99.90
12166;DHT22;6146;48.128;11.476;2023-03-03T18:21:54;4.90;99.90
12166;DHT22;6146;48.128;11.476;2023-03-03T18:24:58;4.80;99.90
12166;DHT22;6146;48.128;11.476;2023-03-03T18:27:28;4.80;99.90
12166;DHT22;6146;48.128;11.476;2023-03-03T18:35:46;4.60;99.90
12166;DHT22;6146;48.128;11.476;2023-03-03T18:41:10;4.50;99.90
12166;DHT22;6146;48.128;11.476;2023-03-03T18:46:43;4.40;99.90
12166;DHT22;6146;48.128;11.476;2023-03-03T18:49:04;4.30;99.90
12166;DHT22;6146;48.128;11.476;2023-03-03T19:04:54;3.90;99.90
12166;DHT22;6146;48.128;11.476;2023-03-03T19:07:24;3.80;99.90
12166;DHT22;6146;48.128;11.476;2023-03-03T19:12:53;3.80;99.90
12166;DHT22;6146;48.128;11.476;2023-03-03T19:18:13;3.70;99.90
12166;DHT22;6146;48.128;11.476;2023-03-03T19:20:44;3.60;99.90
12166;DHT22;6146;48.128;11.476;2023-03-03T19:23:14;3.60;99.90
12166;DHT22;6146;48.128;11.476;2023-03-03T19:25:40;3.50;99.90
12166;DHT22;6146;48.128;11.476;2023-03-03T19:28:24;3.40;99.90
12166;DHT22;6146;48.128;11.476;2023-03-03T19:30:57;3.40;99.90
12166;DHT22;6146;48.128;11.476;2023-03-03T19:33:37;3.30;99.90
12166;DHT22;6146;48.128;11.476;2023-03-03T19:39:10;3.20;99.90
12166;DHT22;6146;48.128;11.476;2023-03-03T19:47:08;3.00;99.90
12166;DHT22;6146;48.128;11.476;2023-03-03T19:49:46;3.00;99.90
12166;DHT22;6146;48.128;11.476;2023-03-03T19:52:39;2.90;99.90
12166;DHT22;6146;48.128;11.476;2023-03-03T19:55:39;2.90;99.90
12166;DHT22;6146;48.128;11.476;2023-03-03T19:58:21;2.80;99.90
12166;DHT22;6146;48.128;11.476;2023-03-03T20:09:00;2.60;99.90
12166;DHT22;6146;48.128;11.476;2023-03-03T20:11:36;2.70;99.90
12166;DHT22;6146;48.128;11.476;2023-03-03T20:14:33;2.60;99.90
12166;DHT22;6146;48.128;11.476;2023-03-03T20:17:26;2.60;99.90
12166;DHT22;6146;48.128;11.476;2023-03-03T20:23:56;2.60;99.90
12166;DHT22;6146;48.128;11.476;2023-03-03T20:31:21;2.50;99.90
12166;DHT22;6146;48.128;11.476;2023-03-03T20:36:36;2.50;99.90
12166;DHT22;6146;48.128;11.476;2023-03-03T20:45:09;2.50;99.90
12166;DHT22;6146;48.128;11.476;2023-03-03T20:51:07;2.40;99.90
12166;DHT22;6146;48.128;11.476;2023-03-03T20:56:27;2.30;99.90
12166;DHT22;6146;48.128;11.476;2023-03-03T21:04:38;2.20;99.90
12166;DHT22;6146;48.128;11.476;2023-03-03T21:07:04;2.20;99.90
12166;DHT22;6146;48.128;11.476;2023-03-03T21:09:32;2.20;99.90
12166;DHT22;6146;48.128;11.476;2023-03-03T21:12:00;2.10;99.90
12166;DHT22;6146;48.128;11.476;2023-03-03T21:14:29;2.10;99.90
12166;DHT22;6146;48.128;11.476;2023-03-03T21:16:57;2.20;99.90
12166;DHT22;6146;48.128;11.476;2023-03-03T21:19:32;3.00;99.90
12166;DHT22;6146;48.128;11.476;2023-03-03T21:21:59;2.10;99.90
12166;DHT22;6146;48.128;11.476;2023-03-03T21:24:54;2.10;99.90
12166;DHT22;6146;48.128;11.476;2023-03-03T21:27:37;2.10;99.90
12166;DHT22;6146;48.128;11.476;2023-03-03T21:30:10;2.10;99.90
12166;DHT22;6146;48.128;11.476;2023-03-03T21:32:41;2.10;99.90
12166;DHT22;6146;48.128;11.476;2023-03-03T21:35:18;2.10;99.90
12166;DHT22;6146;48.128;11.476;2023-03-03T21:37:48;2.10;99.90
12166;DHT22;6146;48.128;11.476;2023-03-03T21:40:21;2.10;99.90
12166;DHT22;6146;48.128;11.476;2023-03-03T21:42:53;2.10;99.90
12166;DHT22;6146;48.128;11.476;2023-03-03T21:45:20;2.10;99.90
12166;DHT22;6146;48.128;11.476;2023-03-03T21:47:46;2.10;99.90
12166;DHT22;6146;48.128;11.476;2023-03-03T21:50:12;2.10;99.90
12166;DHT22;6146;48.128;11.476;2023-03-03T21:52:38;2.10;99.90
12166;DHT22;6146;48.128;11.476;2023-03-03T21:55:04;2.00;99.90
12166;DHT22;6146;48.128;11.476;2023-03-03T21:57:30;2.00;99.90
12166;DHT22;6146;48.128;11.476;2023-03-03T21:59:55;2.00;99.90
12166;DHT22;6146;48.128;11.476;2023-03-03T22:02:21;2.00;99.90
12166;DHT22;6146;48.128;11.476;2023-03-03T22:04:46;2.00;99.90
12166;DHT22;6146;48.128;11.476;2023-03-03T22:07:12;2.00;99.90
12166;DHT22;6146;48.128;11.476;2023-03-03T22:09:38;2.00;99.90
12166;DHT22;6146;48.128;11.476;2023-03-03T22:12:05;2.00;99.90
12166;DHT22;6146;48.128;11.476;2023-03-03T22:14:31;2.00;99.90
12166;DHT22;6146;48.128;11.476;2023-03-03T22:16:56;2.00;99.90
12166;DHT22;6146;48.128;11.476;2023-03-03T22:19:22;2.00;99.90
12166;DHT22;6146;48.128;11.476;2023-03-03T22:21:47;1.10;99.90
12166;DHT22;6146;48.128;11.476;2023-03-03T22:24:14;1.90;99.90
12166;DHT22;6146;48.128;11.476;2023-03-03T22:26:40;1.90;99.90
12166;DHT22;6146;48.128;11.476;2023-03-03T22:29:05;1.90;99.90